Time;durP1;ratioP1;P1;durP2;ratioP2;P2;SDS_P1;SDS_P2;PMS_P1;PMS_P2;Temp;Humidity;BMP_temperature;BMP_pressure;BME280_temperature;BME280_humidity;BME280_pressure;Samples;Min_cycle;Max_cycle;Signal;HPM_P1;HPM_P2
2021/11/15 00:00:30;;;;;;;1.60;1.30;;;8.10;98.20;;;;;;4878734;29;20990;-73
2021/11/15 00:02:58;;;;;;;1.60;1.30;;;8.10;98.20;;;;;;4884957;29;20861;-73
2021/11/15 00:05:24;;;;;;;1.60;1.23;;;8.10;98.20;;;;;;4881830;29;20470;-73
2021/11/15 00:07:51;;;;;;;1.63;1.30;;;8.10;98.20;;;;;;4875007;29;20473;-73
2021/11/15 00:10:20;;;;;;;1.60;1.30;;;8.10;98.20;;;;;;4875274;29;20496;-73
2021/11/15 00:12:50;;;;;;;1.60;1.30;;;8.10;98.20;;;;;;4875682;29;20467;-74
2021/11/15 00:15:19;;;;;;;1.60;1.30;;;8.10;98.20;;;;;;4875476;29;20466;-73
2021/11/15 00:17:46;;;;;;;1.60;1.30;;;8.10;98.20;;;;;;4874073;29;20494;-73
2021/11/15 00:20:14;;;;;;;1.60;1.30;;;8.10;98.20;;;;;;4874202;29;21033;-73
2021/11/15 00:22:40;;;;;;;1.60;1.30;;;8.20;98.20;;;;;;4875201;29;20474;-73
2021/11/15 00:25:08;;;;;;;1.60;1.30;;;8.20;98.20;;;;;;4878035;29;20660;-73
2021/11/15 00:27:36;;;;;;;1.60;1.30;;;8.20;98.20;;;;;;4880167;29;20485;-73
2021/11/15 00:30:04;;;;;;;1.67;1.30;;;8.20;98.20;;;;;;4875250;29;20466;-73
2021/11/15 00:32:31;;;;;;;1.60;1.30;;;8.20;98.20;;;;;;4874873;29;20481;-73
2021/11/15 00:34:58;;;;;;;1.60;1.20;;;8.20;98.20;;;;;;4874214;29;20474;-73
2021/11/15 00:37:25;;;;;;;1.63;1.30;;;8.20;98.20;;;;;;4874639;29;20804;-75
2021/11/15 00:39:52;;;;;;;1.60;1.27;;;8.20;98.20;;;;;;4877518;29;20493;-73
2021/11/15 00:42:19;;;;;;;1.60;1.30;;;8.20;98.20;;;;;;4878593;29;20474;-74
2021/11/15 00:44:47;;;;;;;1.60;1.30;;;8.20;98.20;;;;;;4878310;29;20477;-73
2021/11/15 00:47:14;;;;;;;1.60;1.20;;;8.20;98.20;;;;;;4872370;29;20872;-73
2021/11/15 00:49:41;;;;;;;1.60;1.30;;;8.30;98.20;;;;;;4874054;29;20470;-73
2021/11/15 00:52:08;;;;;;;1.60;1.30;;;8.20;98.20;;;;;;4878243;29;20478;-73
2021/11/15 00:54:36;;;;;;;1.60;1.30;;;8.20;98.20;;;;;;4878100;29;21023;-73
2021/11/15 00:57:04;;;;;;;1.60;1.30;;;8.20;98.20;;;;;;4882696;29;20888;-73
2021/11/15 00:59:32;;;;;;;1.60;1.30;;;8.20;98.20;;;;;;4882597;29;20504;-73
2021/11/15 01:02:01;;;;;;;1.60;1.27;;;8.20;98.20;;;;;;4878860;29;20630;-73
2021/11/15 01:04:28;;;;;;;1.60;1.20;;;8.30;98.20;;;;;;4882631;29;20477;-73
2021/11/15 01:06:56;;;;;;;1.60;1.20;;;8.30;98.20;;;;;;4878012;29;20489;-73
2021/11/15 01:09:24;;;;;;;1.60;1.20;;;8.30;98.20;;;;;;4877787;29;20842;-73
2021/11/15 01:11:52;;;;;;;1.67;1.40;;;8.30;98.20;;;;;;4881469;29;20509;-73
2021/11/15 01:14:19;;;;;;;1.70;1.60;;;8.30;98.20;;;;;;4876892;29;20478;-73
2021/11/15 01:16:47;;;;;;;1.60;1.20;;;8.30;98.20;;;;;;4869752;29;20580;-73
2021/11/15 01:19:15;;;;;;;1.60;1.30;;;8.30;98.20;;;;;;4876751;29;20496;-73
2021/11/15 01:21:42;;;;;;;1.60;1.30;;;8.30;98.20;;;;;;4877539;29;20470;-73
2021/11/15 01:24:09;;;;;;;1.70;1.40;;;8.30;98.20;;;;;;4877659;29;20478;-73
2021/11/15 01:26:36;;;;;;;1.60;1.20;;;8.30;98.20;;;;;;4880980;29;20494;-73
2021/11/15 01:29:04;;;;;;;1.60;1.23;;;8.30;98.20;;;;;;4878564;29;20459;-74
2021/11/15 01:31:31;;;;;;;1.60;1.27;;;8.30;98.20;;;;;;4877650;29;20478;-73
2021/11/15 01:33:58;;;;;;;1.60;1.20;;;8.30;98.20;;;;;;4878058;29;20806;-74
2021/11/15 01:36:26;;;;;;;1.60;1.20;;;8.30;98.20;;;;;;4881309;29;20486;-73
2021/11/15 01:38:53;;;;;;;1.60;1.27;;;8.30;98.20;;;;;;4877195;29;20505;-73
2021/11/15 01:41:20;;;;;;;1.60;1.30;;;8.30;98.20;;;;;;4877106;29;20834;-74
2021/11/15 01:43:47;;;;;;;1.60;1.30;;;8.30;98.20;;;;;;4877898;29;20757;-73
2021/11/15 01:46:14;;;;;;;1.60;1.20;;;8.30;98.20;;;;;;4876103;29;20497;-74
2021/11/15 01:48:41;;;;;;;1.60;1.20;;;8.30;98.20;;;;;;4873545;29;20466;-74
2021/11/15 01:51:08;;;;;;;1.60;1.30;;;8.30;98.20;;;;;;4876520;29;20974;-73
2021/11/15 01:53:37;;;;;;;1.60;1.20;;;8.30;98.20;;;;;;4875684;29;20485;-74
2021/11/15 01:56:04;;;;;;;1.60;1.30;;;8.30;98.20;;;;;;4869870;29;20957;-74
2021/11/15 01:58:31;;;;;;;3.80;3.50;;;8.30;98.20;;;;;;4884030;29;20841;-74
2021/11/15 02:01:00;;;;;;;1.60;1.30;;;8.30;98.20;;;;;;4875108;29;20966;-74
2021/11/15 02:03:29;;;;;;;1.60;1.30;;;8.30;98.20;;;;;;4868977;29;20497;-74
2021/11/15 02:05:57;;;;;;;1.60;1.20;;;8.30;98.20;;;;;;4876958;29;20490;-74
2021/11/15 02:08:24;;;;;;;1.60;1.20;;;8.30;98.20;;;;;;4880025;29;20474;-73
2021/11/15 02:10:53;;;;;;;1.63;1.20;;;8.30;98.20;;;;;;4876353;29;20477;-74
2021/11/15 02:13:22;;;;;;;1.60;1.30;;;8.30;98.20;;;;;;4879325;29;20523;-73
2021/11/15 02:15:51;;;;;;;1.60;1.30;;;8.30;98.20;;;;;;4871754;29;21074;-74
2021/11/15 02:18:18;;;;;;;1.60;1.30;;;8.30;98.20;;;;;;4871011;29;20850;-74
2021/11/15 02:20:48;;;;;;;1.60;1.30;;;8.30;98.20;;;;;;4876226;29;20502;-73
2021/11/15 02:23:16;;;;;;;1.60;1.30;;;8.30;98.20;;;;;;4876305;29;20556;-74
2021/11/15 02:25:44;;;;;;;1.60;1.30;;;8.30;98.20;;;;;;4872191;29;20492;-73
2021/11/15 02:28:11;;;;;;;1.60;1.30;;;8.30;98.20;;;;;;4881094;29;20472;-74
2021/11/15 02:30:38;;;;;;;1.60;1.30;;;8.30;98.20;;;;;;4876122;29;20474;-73
2021/11/15 02:33:05;;;;;;;1.60;1.30;;;8.30;98.20;;;;;;4876088;29;20474;-74
2021/11/15 02:35:32;;;;;;;1.60;1.30;;;8.30;98.20;;;;;;4876273;29;20498;-74
2021/11/15 02:38:00;;;;;;;1.60;1.20;;;8.30;98.20;;;;;;4876130;29;20481;-73
2021/11/15 02:40:28;;;;;;;1.60;1.20;;;8.30;98.20;;;;;;4875982;29;20589;-74
2021/11/15 02:42:57;;;;;;;1.60;1.30;;;8.30;98.20;;;;;;4870779;29;20485;-74
2021/11/15 02:45:26;;;;;;;1.60;1.30;;;8.30;98.20;;;;;;4875777;29;20855;-74
2021/11/15 02:47:54;;;;;;;1.63;1.27;;;8.30;98.20;;;;;;4869429;29;20463;-74
2021/11/15 02:50:24;;;;;;;1.60;1.30;;;8.30;98.20;;;;;;4872787;29;20536;-74
2021/11/15 02:52:54;;;;;;;1.60;1.23;;;8.40;98.20;;;;;;4876236;29;20474;-74
2021/11/15 02:55:23;;;;;;;1.60;1.30;;;8.40;98.20;;;;;;4876933;29;20640;-73
2021/11/15 02:57:51;;;;;;;1.60;1.30;;;8.40;98.20;;;;;;4877541;29;20466;-73
2021/11/15 03:00:24;;;;;;;1.70;1.30;;;8.40;98.20;;;;;;4864158;29;20582;-74
2021/11/15 03:02:52;;;;;;;1.60;1.20;;;8.30;98.20;;;;;;4869233;29;20470;-74
2021/11/15 03:05:23;;;;;;;1.60;1.20;;;8.40;98.20;;;;;;4878769;29;20470;-74
2021/11/15 03:07:50;;;;;;;1.60;1.30;;;8.40;98.20;;;;;;4877944;29;20466;-74
2021/11/15 03:10:17;;;;;;;1.60;1.30;;;8.40;98.20;;;;;;4875521;29;20478;-74
2021/11/15 03:12:46;;;;;;;1.60;1.20;;;8.40;98.20;;;;;;4875982;29;20958;-74
2021/11/15 03:15:22;;;;;;;1.60;1.23;;;8.40;98.20;;;;;;4874729;29;20557;-74
2021/11/15 03:17:57;;;;;;;1.60;1.30;;;8.40;98.20;;;;;;4870611;29;20498;-74
2021/11/15 03:20:25;;;;;;;1.60;1.20;;;8.40;98.20;;;;;;4872955;29;20493;-74
2021/11/15 03:22:53;;;;;;;1.60;1.30;;;8.40;98.20;;;;;;4875577;29;20470;-74
2021/11/15 03:25:19;;;;;;;1.60;1.20;;;8.40;98.20;;;;;;4873926;29;20899;-74
2021/11/15 03:27:47;;;;;;;1.60;1.20;;;8.40;98.20;;;;;;4879472;29;20647;-74
2021/11/15 03:30:15;;;;;;;1.60;1.30;;;8.40;98.20;;;;;;4879857;29;20840;-74
2021/11/15 03:32:47;;;;;;;1.60;1.30;;;8.40;98.20;;;;;;4874853;29;20478;-74
2021/11/15 03:35:15;;;;;;;1.60;1.20;;;8.40;98.20;;;;;;4874102;29;20869;-74
2021/11/15 03:37:42;;;;;;;1.60;1.20;;;8.40;98.20;;;;;;4874924;29;20539;-74
2021/11/15 03:40:14;;;;;;;1.60;1.20;;;8.40;98.20;;;;;;4874779;29;20740;-74
2021/11/15 03:42:42;;;;;;;1.60;1.20;;;8.50;98.20;;;;;;4875127;29;20474;-74
2021/11/15 03:45:12;;;;;;;1.60;1.40;;;8.40;98.20;;;;;;4874433;29;20496;-74
2021/11/15 03:47:39;;;;;;;1.60;1.40;;;8.40;98.20;;;;;;4869650;29;20503;-74
2021/11/15 03:50:08;;;;;;;1.60;1.20;;;8.40;98.20;;;;;;4873815;29;20672;-74
2021/11/15 03:52:36;;;;;;;1.60;1.20;;;8.40;98.20;;;;;;4875130;29;20954;-74
2021/11/15 03:55:04;;;;;;;1.60;1.20;;;8.40;98.20;;;;;;4875022;29;20486;-74
2021/11/15 03:57:30;;;;;;;1.60;1.20;;;8.40;98.20;;;;;;4878255;29;20493;-74
2021/11/15 03:59:57;;;;;;;1.60;1.27;;;8.40;98.20;;;;;;4874672;29;20493;-74
2021/11/15 04:02:28;;;;;;;1.60;1.30;;;8.40;98.20;;;;;;4871792;29;20476;-74
2021/11/15 04:04:58;;;;;;;1.60;1.20;;;8.40;98.20;;;;;;4884355;29;21017;-74
2021/11/15 04:07:30;;;;;;;1.60;1.30;;;8.40;98.20;;;;;;4875463;29;20502;-74
2021/11/15 04:09:59;;;;;;;1.60;1.20;;;8.40;98.20;;;;;;4872643;29;20553;-74
2021/11/15 04:12:27;;;;;;;1.60;1.20;;;8.40;98.20;;;;;;4878912;29;20644;-74
2021/11/15 04:14:54;;;;;;;1.60;1.23;;;8.40;98.20;;;;;;4881130;29;20962;-74
2021/11/15 04:17:22;;;;;;;1.60;1.30;;;8.40;98.20;;;;;;4874252;29;20493;-74
2021/11/15 04:19:53;;;;;;;1.60;1.23;;;8.40;98.20;;;;;;4877346;29;20500;-74
2021/11/15 04:22:20;;;;;;;1.60;1.23;;;8.40;98.20;;;;;;4878859;29;20470;-74
2021/11/15 04:24:48;;;;;;;1.60;1.20;;;8.40;98.20;;;;;;4877428;29;20481;-74
2021/11/15 04:27:15;;;;;;;1.60;1.30;;;8.40;98.20;;;;;;4882442;29;20804;-74
2021/11/15 04:29:43;;;;;;;1.60;1.30;;;8.40;98.20;;;;;;4880391;29;20470;-74
2021/11/15 04:32:11;;;;;;;1.60;1.20;;;8.40;98.20;;;;;;4878037;29;20482;-74
2021/11/15 04:34:38;;;;;;;1.60;1.20;;;8.40;98.20;;;;;;4878073;29;20478;-74
2021/11/15 04:37:07;;;;;;;1.60;1.13;;;8.40;98.20;;;;;;4878032;29;20501;-74
2021/11/15 04:39:34;;;;;;;1.60;1.20;;;8.40;98.20;;;;;;4874690;29;20502;-74
2021/11/15 04:42:01;;;;;;;2.20;1.93;;;8.40;98.20;;;;;;4870999;29;20501;-74
2021/11/15 04:44:29;;;;;;;1.60;1.30;;;8.40;98.20;;;;;;4870544;29;20484;-74
2021/11/15 04:46:56;;;;;;;1.63;1.40;;;8.40;98.20;;;;;;4870824;29;20504;-74
2021/11/15 04:49:23;;;;;;;1.60;1.20;;;8.40;98.20;;;;;;4875090;29;20474;-74
2021/11/15 04:51:51;;;;;;;1.60;1.20;;;8.40;98.20;;;;;;4878118;29;20470;-74
2021/11/15 04:54:20;;;;;;;1.60;1.27;;;8.40;98.20;;;;;;4876969;29;20827;-74
2021/11/15 04:56:47;;;;;;;1.60;1.30;;;8.40;98.20;;;;;;4884303;29;21452;-74
2021/11/15 04:59:14;;;;;;;1.60;1.33;;;8.30;98.20;;;;;;4875910;29;20867;-74
2021/11/15 05:01:41;;;;;;;1.63;1.30;;;8.30;98.20;;;;;;4882607;29;20516;-74
2021/11/15 05:04:09;;;;;;;1.60;1.20;;;8.30;98.20;;;;;;4873036;29;20550;-74
2021/11/15 05:06:36;;;;;;;1.60;1.23;;;8.30;98.20;;;;;;4880267;29;20490;-74
2021/11/15 05:09:03;;;;;;;1.60;1.20;;;8.30;98.20;;;;;;4877239;29;20547;-74
2021/11/15 05:11:31;;;;;;;1.67;1.30;;;8.30;98.20;;;;;;4876572;29;20533;-74
2021/11/15 05:13:58;;;;;;;1.60;1.30;;;8.30;98.20;;;;;;4877195;29;20943;-74
2021/11/15 05:16:25;;;;;;;1.60;1.30;;;8.30;98.20;;;;;;4874189;29;20946;-74
2021/11/15 05:18:53;;;;;;;1.60;1.20;;;8.30;98.20;;;;;;4872634;29;20849;-74
2021/11/15 05:21:19;;;;;;;1.60;1.30;;;8.30;98.20;;;;;;4875991;29;20494;-74
2021/11/15 05:23:47;;;;;;;1.60;1.30;;;8.30;98.20;;;;;;4876807;29;20553;-74
2021/11/15 05:26:13;;;;;;;1.60;1.30;;;8.40;98.20;;;;;;4876220;29;20489;-74
2021/11/15 05:28:42;;;;;;;1.60;1.30;;;8.30;98.20;;;;;;4874682;29;20472;-74
2021/11/15 05:31:09;;;;;;;1.60;1.20;;;8.30;98.20;;;;;;4883199;29;20871;-74
2021/11/15 05:33:35;;;;;;;1.60;1.30;;;8.30;98.20;;;;;;4875824;29;20914;-74
2021/11/15 05:36:02;;;;;;;1.60;1.20;;;8.30;98.20;;;;;;4874433;29;20517;-74
2021/11/15 05:38:29;;;;;;;1.60;1.20;;;8.30;98.20;;;;;;4875818;29;20522;-74
2021/11/15 05:40:57;;;;;;;1.60;1.30;;;8.30;98.20;;;;;;4875740;29;20977;-74
2021/11/15 05:43:24;;;;;;;1.63;1.30;;;8.30;98.20;;;;;;4876460;29;20554;-74
2021/11/15 05:45:53;;;;;;;1.60;1.20;;;8.30;98.20;;;;;;4870926;29;20979;-74
2021/11/15 05:48:20;;;;;;;1.60;1.40;;;8.30;98.20;;;;;;4867945;29;20502;-74
2021/11/15 05:50:48;;;;;;;1.63;1.30;;;8.30;98.20;;;;;;4873926;29;20479;-75
2021/11/15 05:53:16;;;;;;;1.60;1.30;;;8.30;98.20;;;;;;4873777;29;20467;-74
2021/11/15 05:55:43;;;;;;;1.60;1.30;;;8.30;98.20;;;;;;4872645;29;20485;-74
2021/11/15 05:58:10;;;;;;;1.60;1.27;;;8.30;98.20;;;;;;4879098;29;20470;-74
2021/11/15 06:00:41;;;;;;;1.60;1.20;;;8.30;98.20;;;;;;4871922;29;20625;-74
2021/11/15 06:03:09;;;;;;;1.60;1.40;;;8.30;98.20;;;;;;4881339;29;20564;-74
2021/11/15 06:05:37;;;;;;;1.80;1.60;;;8.30;98.20;;;;;;4874767;29;20508;-74
2021/11/15 06:08:05;;;;;;;1.60;1.20;;;8.30;98.20;;;;;;4875151;29;20970;-74
2021/11/15 06:10:32;;;;;;;1.60;1.20;;;8.30;98.20;;;;;;4874806;29;20474;-74
2021/11/15 06:12:59;;;;;;;1.60;1.30;;;8.30;98.20;;;;;;4875647;29;20474;-74
2021/11/15 06:15:26;;;;;;;1.67;1.40;;;8.30;98.20;;;;;;4872578;29;20478;-74
2021/11/15 06:17:54;;;;;;;1.63;1.37;;;8.30;98.20;;;;;;4873925;29;20470;-74
2021/11/15 06:20:22;;;;;;;1.60;1.30;;;8.30;98.20;;;;;;4871708;29;20889;-74
2021/11/15 06:22:49;;;;;;;1.60;1.20;;;8.30;98.20;;;;;;4875472;29;20483;-74
2021/11/15 06:25:17;;;;;;;1.60;1.20;;;8.30;98.20;;;;;;4876945;29;20545;-74
2021/11/15 06:27:44;;;;;;;1.60;1.30;;;8.30;98.20;;;;;;4882271;29;20825;-74
2021/11/15 06:30:15;;;;;;;1.60;1.30;;;8.30;98.20;;;;;;4874356;29;20566;-74
2021/11/15 06:32:42;;;;;;;1.60;1.30;;;8.30;98.20;;;;;;4874038;29;20542;-74
2021/11/15 06:35:10;;;;;;;1.63;1.30;;;8.30;98.20;;;;;;4873556;29;20474;-74
2021/11/15 06:37:39;;;;;;;1.60;1.30;;;8.30;98.20;;;;;;4894643;23;20597;-77
2021/11/15 06:40:08;;;;;;;1.60;1.30;;;8.30;98.20;;;;;;4896925;29;21100;-78
2021/11/15 06:42:35;;;;;;;1.60;1.30;;;8.30;98.20;;;;;;4895659;29;21318;-77
2021/11/15 06:45:03;;;;;;;1.60;1.30;;;8.30;98.20;;;;;;4893695;29;20470;-78
2021/11/15 06:47:33;;;;;;;1.60;1.30;;;8.30;98.20;;;;;;4889706;29;20644;-76
2021/11/15 06:50:01;;;;;;;1.60;1.30;;;8.30;98.20;;;;;;4904426;29;20498;-76
2021/11/15 06:52:28;;;;;;;1.60;1.30;;;8.30;98.20;;;;;;4911328;29;20469;-77
2021/11/15 06:54:57;;;;;;;1.60;1.30;;;8.30;98.20;;;;;;4908660;29;20560;-76
2021/11/15 06:57:26;;;;;;;1.70;1.40;;;8.30;98.20;;;;;;4894272;29;20546;-76
2021/11/15 06:59:53;;;;;;;1.60;1.30;;;8.30;98.20;;;;;;4901145;29;20465;-77
2021/11/15 07:02:20;;;;;;;1.60;1.30;;;8.30;98.20;;;;;;4909630;29;20547;-76
2021/11/15 07:04:48;;;;;;;1.60;1.30;;;8.30;98.20;;;;;;4895238;29;20468;-77
2021/11/15 07:07:15;;;;;;;1.90;1.70;;;8.30;98.20;;;;;;4903744;29;20574;-75
2021/11/15 07:09:45;;;;;;;1.60;1.20;;;8.40;98.20;;;;;;4899841;29;20469;-75
2021/11/15 07:12:13;;;;;;;1.60;1.30;;;8.40;98.20;;;;;;4901002;29;20505;-76
2021/11/15 07:14:40;;;;;;;1.60;1.20;;;8.40;98.20;;;;;;4888507;29;20644;-77
2021/11/15 07:17:10;;;;;;;1.60;1.30;;;8.40;98.20;;;;;;4891407;29;20502;-76
2021/11/15 07:19:38;;;;;;;1.60;1.20;;;8.40;98.20;;;;;;4896040;29;20493;-77
2021/11/15 07:22:04;;;;;;;1.60;1.30;;;8.40;98.20;;;;;;4888511;29;20528;-77
2021/11/15 07:24:32;;;;;;;1.60;1.30;;;8.40;98.20;;;;;;4900769;29;20479;-77
2021/11/15 07:26:58;;;;;;;1.63;1.40;;;8.30;98.20;;;;;;4895259;29;20476;-74
2021/11/15 07:29:26;;;;;;;1.60;1.30;;;8.40;98.20;;;;;;4891806;29;20473;-76
2021/11/15 07:31:54;;;;;;;1.60;1.20;;;8.40;98.20;;;;;;4887080;29;20466;-76
2021/11/15 07:34:22;;;;;;;1.60;1.23;;;8.40;98.20;;;;;;4883568;29;20476;-77
2021/11/15 07:36:49;;;;;;;1.60;1.20;;;8.40;98.20;;;;;;4893404;29;20538;-77
2021/11/15 07:39:16;;;;;;;1.60;1.27;;;8.40;98.20;;;;;;4891733;29;20512;-77
2021/11/15 07:41:43;;;;;;;1.60;1.20;;;8.40;98.20;;;;;;4894586;29;20508;-77
2021/11/15 07:44:09;;;;;;;1.60;1.30;;;8.40;98.20;;;;;;4882681;29;20469;-77
2021/11/15 07:46:37;;;;;;;1.60;1.30;;;8.40;98.20;;;;;;4890123;29;20481;-76
2021/11/15 07:49:04;;;;;;;1.60;1.30;;;8.40;98.20;;;;;;4880110;29;20497;-77
2021/11/15 07:51:31;;;;;;;1.60;1.23;;;8.30;98.20;;;;;;4894765;29;20501;-78
2021/11/15 07:53:58;;;;;;;1.60;1.30;;;8.30;98.20;;;;;;4896493;29;20489;-79
2021/11/15 07:56:25;;;;;;;1.67;1.40;;;8.40;98.20;;;;;;4891598;29;20568;-77
2021/11/15 07:58:57;;;;;;;1.60;1.20;;;8.40;98.20;;;;;;4891038;29;20488;-79
2021/11/15 08:01:23;;;;;;;1.60;1.30;;;8.40;98.20;;;;;;4891633;29;20493;-78
2021/11/15 08:03:52;;;;;;;1.60;1.30;;;8.40;98.20;;;;;;4892999;29;21055;-78
2021/11/15 08:06:19;;;;;;;1.60;1.40;;;8.40;98.20;;;;;;4894485;29;20935;-78
2021/11/15 08:08:47;;;;;;;1.60;1.20;;;8.40;98.20;;;;;;4893682;29;20512;-77
2021/11/15 08:11:16;;;;;;;1.60;1.30;;;8.40;98.20;;;;;;4890235;29;20854;-77
2021/11/15 08:13:43;;;;;;;1.60;1.30;;;8.40;98.20;;;;;;4901696;29;20996;-76
2021/11/15 08:16:10;;;;;;;4.53;2.80;;;8.40;98.20;;;;;;4891690;29;20473;-76
2021/11/15 08:18:37;;;;;;;1.60;1.20;;;8.40;98.20;;;;;;4887728;29;20501;-77
2021/11/15 08:21:11;;;;;;;1.60;1.20;;;8.40;98.20;;;;;;4887068;29;21073;-78
2021/11/15 08:23:38;;;;;;;1.60;1.20;;;8.40;98.20;;;;;;4877661;29;20474;-78
2021/11/15 08:26:30;;;;;;;1.60;1.30;;;8.40;98.20;;;;;;4873364;29;20561;-76
2021/11/15 08:29:02;;;;;;;1.60;1.20;;;8.40;98.20;;;;;;4873942;29;20507;-76
2021/11/15 08:31:30;;;;;;;1.60;1.20;;;8.40;98.20;;;;;;4877422;29;20466;-76
2021/11/15 08:33:57;;;;;;;1.60;1.30;;;8.40;98.20;;;;;;4874051;29;20481;-76
2021/11/15 08:36:26;;;;;;;1.60;1.30;;;8.40;98.20;;;;;;4875514;29;20952;-75
2021/11/15 08:38:57;;;;;;;1.60;1.27;;;8.40;98.20;;;;;;4877096;29;20505;-76
2021/11/15 08:41:27;;;;;;;1.60;1.20;;;8.40;98.20;;;;;;4874236;29;20525;-76
2021/11/15 08:43:56;;;;;;;1.60;1.30;;;8.30;98.20;;;;;;4873843;29;20504;-75
2021/11/15 08:46:29;;;;;;;1.60;1.30;;;8.30;98.20;;;;;;4874313;29;20468;-75
2021/11/15 08:48:57;;;;;;;1.60;1.20;;;8.30;98.20;;;;;;4874367;29;21092;-75
2021/11/15 08:51:27;;;;;;;1.60;1.23;;;8.30;98.20;;;;;;4873102;29;20917;-75
2021/11/15 08:53:58;;;;;;;1.63;1.33;;;8.30;98.20;;;;;;4873850;29;20663;-75
2021/11/15 08:56:25;;;;;;;1.60;1.20;;;8.30;98.20;;;;;;4873540;29;20470;-75
2021/11/15 08:58:52;;;;;;;1.60;1.30;;;8.30;98.20;;;;;;4874677;29;20587;-75
2021/11/15 09:01:19;;;;;;;1.60;1.30;;;8.30;98.20;;;;;;4875228;29;20497;-75
2021/11/15 09:03:50;;;;;;;1.60;1.30;;;8.30;98.20;;;;;;4877417;29;20474;-75
2021/11/15 09:06:18;;;;;;;1.60;1.23;;;8.30;98.20;;;;;;4873866;29;20474;-75
2021/11/15 09:08:47;;;;;;;1.60;1.20;;;8.30;98.20;;;;;;4879958;29;20519;-76
2021/11/15 09:11:15;;;;;;;1.60;1.30;;;8.30;98.20;;;;;;4879232;29;20477;-77
2021/11/15 09:13:45;;;;;;;1.60;1.20;;;8.30;98.20;;;;;;4879593;29;20804;-76
2021/11/15 09:16:15;;;;;;;1.60;1.30;;;8.40;98.20;;;;;;4876302;29;20477;-75
2021/11/15 09:18:43;;;;;;;1.60;1.10;;;8.30;98.20;;;;;;4881615;29;20497;-74
2021/11/15 09:21:12;;;;;;;1.60;1.20;;;8.40;98.20;;;;;;4878806;29;20497;-75
2021/11/15 09:23:41;;;;;;;1.60;1.30;;;8.40;98.20;;;;;;4885801;29;20473;-77
2021/11/15 09:26:11;;;;;;;1.60;1.30;;;8.40;98.20;;;;;;4886012;29;20569;-77
2021/11/15 09:28:38;;;;;;;1.60;1.20;;;8.40;98.20;;;;;;4877502;29;20494;-74
2021/11/15 09:31:05;;;;;;;1.60;1.20;;;8.40;98.20;;;;;;4878562;29;20564;-74
2021/11/15 09:33:33;;;;;;;1.60;1.20;;;8.40;98.20;;;;;;4880806;29;20546;-76
2021/11/15 09:36:00;;;;;;;1.60;1.20;;;8.40;98.20;;;;;;4876436;29;20479;-76
2021/11/15 09:38:28;;;;;;;1.60;1.20;;;8.40;98.20;;;;;;4879323;29;20516;-76
2021/11/15 09:40:59;;;;;;;1.60;1.20;;;8.40;98.20;;;;;;4882397;29;20478;-74
2021/11/15 09:43:39;;;;;;;1.60;1.20;;;8.40;98.20;;;;;;4887153;29;20469;-76
2021/11/15 09:46:08;;;;;;;3.10;2.90;;;8.40;98.20;;;;;;4880480;29;20484;-77
2021/11/15 09:48:37;;;;;;;1.60;1.30;;;8.30;98.20;;;;;;4882335;29;21016;-74
2021/11/15 09:51:06;;;;;;;2.67;2.03;;;8.30;98.20;;;;;;4878492;29;20889;-76
2021/11/15 09:53:48;;;;;;;1.60;1.30;;;8.30;98.20;;;;;;4878825;29;20473;-75
2021/11/15 09:56:16;;;;;;;1.60;1.30;;;8.30;98.20;;;;;;4879610;29;20478;-76
2021/11/15 09:58:47;;;;;;;1.60;1.20;;;8.30;98.20;;;;;;4875473;29;20616;-77
2021/11/15 10:01:15;;;;;;;1.60;1.30;;;8.30;98.20;;;;;;4877830;29;20554;-75
2021/11/15 10:03:43;;;;;;;1.60;1.23;;;8.30;98.20;;;;;;4876481;29;20486;-75
2021/11/15 10:06:15;;;;;;;1.60;1.20;;;8.40;98.20;;;;;;4876788;29;20473;-75
2021/11/15 10:08:44;;;;;;;1.70;1.50;;;8.40;98.20;;;;;;4881113;29;20508;-77
2021/11/15 10:11:12;;;;;;;1.60;1.20;;;8.40;98.20;;;;;;4883062;29;20473;-78
2021/11/15 10:13:41;;;;;;;1.60;1.20;;;8.40;98.20;;;;;;4877815;29;20557;-77
2021/11/15 10:16:12;;;;;;;1.60;1.20;;;8.40;98.20;;;;;;4880114;29;20474;-77
2021/11/15 10:18:48;;;;;;;1.60;1.20;;;8.40;98.20;;;;;;4878810;29;20495;-75
2021/11/15 10:21:22;;;;;;;1.60;1.20;;;8.40;98.20;;;;;;4876321;29;20978;-77
2021/11/15 10:23:56;;;;;;;1.60;1.17;;;8.40;98.20;;;;;;4874964;29;20946;-75
2021/11/15 10:26:35;;;;;;;1.60;1.20;;;8.50;98.20;;;;;;4873856;29;20482;-76
2021/11/15 10:29:07;;;;;;;1.60;1.20;;;8.40;98.20;;;;;;4875752;29;20584;-75
2021/11/15 10:31:41;;;;;;;1.60;1.30;;;8.40;98.20;;;;;;4873544;29;20578;-76
2021/11/15 10:34:16;;;;;;;1.60;1.20;;;8.40;98.20;;;;;;4878714;29;20585;-75
2021/11/15 10:36:57;;;;;;;1.60;1.23;;;8.30;98.20;;;;;;4879292;29;20468;-74
2021/11/15 10:39:28;;;;;;;1.60;1.20;;;8.30;98.20;;;;;;4878035;29;20471;-75
2021/11/15 10:41:58;;;;;;;1.60;1.20;;;8.30;98.20;;;;;;4875120;29;20862;-75
2021/11/15 10:44:25;;;;;;;1.60;1.30;;;8.30;98.20;;;;;;4878984;29;20525;-75
2021/11/15 10:46:55;;;;;;;1.60;1.20;;;8.40;98.20;;;;;;4878017;29;20907;-74
2021/11/15 10:49:24;;;;;;;1.60;1.30;;;8.40;98.20;;;;;;4876960;29;20996;-75
2021/11/15 10:51:56;;;;;;;1.60;1.20;;;8.40;98.20;;;;;;4877872;29;20628;-75
2021/11/15 10:54:53;;;;;;;1.60;1.20;;;8.50;98.20;;;;;;4878342;29;20473;-75
2021/11/15 10:57:42;;;;;;;1.60;1.20;;;8.50;98.20;;;;;;4855412;29;20969;-76
2021/11/15 11:00:16;;;;;;;1.60;1.20;;;8.50;98.20;;;;;;4874023;29;20474;-76
2021/11/15 11:02:47;;;;;;;1.60;1.40;;;8.60;98.20;;;;;;4871729;29;20588;-75
2021/11/15 11:05:16;;;;;;;1.60;1.20;;;8.60;98.20;;;;;;4881244;29;20914;-75
2021/11/15 11:07:48;;;;;;;1.60;1.30;;;8.60;98.20;;;;;;4879729;29;20529;-77
2021/11/15 11:10:22;;;;;;;1.60;1.30;;;8.60;98.20;;;;;;4879294;29;20473;-75
2021/11/15 11:13:00;;;;;;;1.60;1.30;;;8.60;98.20;;;;;;4880682;29;20461;-74
2021/11/15 11:15:34;;;;;;;1.93;1.73;;;8.60;98.20;;;;;;4882164;29;20885;-75
2021/11/15 11:18:17;;;;;;;1.60;1.30;;;8.60;98.20;;;;;;4881987;29;20494;-75
2021/11/15 11:21:24;;;;;;;1.60;1.20;;;8.50;98.20;;;;;;4885845;29;21078;-74
2021/11/15 11:26:57;;;;;;;2.53;2.33;;;8.50;98.20;;;;;;4874216;29;20466;-74
2021/11/15 11:29:30;;;;;;;1.60;1.20;;;8.50;98.20;;;;;;4878785;29;20948;-75
2021/11/15 11:32:03;;;;;;;1.60;1.30;;;8.50;98.20;;;;;;4879144;29;20482;-75
2021/11/15 11:34:33;;;;;;;1.60;1.20;;;8.50;98.20;;;;;;4881172;29;20989;-75
2021/11/15 11:37:06;;;;;;;1.60;1.20;;;8.50;98.20;;;;;;4878151;29;20534;-76
2021/11/15 11:39:35;;;;;;;1.60;1.20;;;8.50;98.20;;;;;;4878470;29;20482;-76
2021/11/15 11:42:04;;;;;;;1.60;1.20;;;8.50;98.20;;;;;;4873576;29;20969;-75
2021/11/15 11:44:34;;;;;;;1.60;1.20;;;8.50;98.20;;;;;;4881105;29;20564;-74
2021/11/15 11:47:07;;;;;;;1.60;1.20;;;8.50;98.20;;;;;;4881871;29;20560;-76
2021/11/15 11:49:37;;;;;;;1.60;1.30;;;8.50;98.20;;;;;;4877328;29;20501;-75
2021/11/15 11:52:30;;;;;;;1.60;1.30;;;8.50;98.20;;;;;;4878557;29;20470;-75
2021/11/15 11:54:57;;;;;;;1.60;1.20;;;8.50;98.20;;;;;;4878926;29;20488;-75
2021/11/15 11:57:28;;;;;;;1.67;1.30;;;8.40;98.20;;;;;;4879046;29;20524;-75
2021/11/15 12:00:03;;;;;;;1.60;1.20;;;8.40;98.20;;;;;;4880871;29;20953;-75
2021/11/15 12:02:34;;;;;;;1.60;1.20;;;8.40;98.20;;;;;;4881951;29;20496;-74
2021/11/15 12:05:10;;;;;;;2.00;1.80;;;8.40;98.20;;;;;;4880585;29;20559;-76
2021/11/15 12:07:48;;;;;;;2.00;1.80;;;8.50;98.20;;;;;;4880087;29;20498;-74
2021/11/15 12:10:20;;;;;;;1.60;1.20;;;8.50;98.20;;;;;;4886441;29;20520;-74
2021/11/15 12:12:59;;;;;;;1.60;1.20;;;8.50;98.20;;;;;;4887990;29;21004;-74
2021/11/15 12:15:30;;;;;;;1.60;1.10;;;8.50;98.20;;;;;;4896548;29;20469;-74
2021/11/15 12:18:10;;;;;;;1.60;1.30;;;8.50;98.20;;;;;;4880657;29;20505;-75
2021/11/15 12:21:20;;;;;;;1.60;1.20;;;8.40;98.20;;;;;;4875605;29;20501;-76
2021/11/15 12:24:09;;;;;;;1.60;1.20;;;8.40;98.20;;;;;;4879197;29;20501;-75
2021/11/15 12:26:43;;;;;;;1.60;1.33;;;8.40;98.20;;;;;;4877161;29;20474;-76
2021/11/15 12:29:27;;;;;;;1.60;1.20;;;8.40;98.20;;;;;;4876879;29;20669;-75
2021/11/15 12:31:57;;;;;;;1.60;1.20;;;8.40;98.20;;;;;;4877379;29;20504;-76
2021/11/15 12:34:58;;;;;;;1.60;1.30;;;8.50;98.20;;;;;;4884213;29;20473;-77
2021/11/15 12:37:34;;;;;;;1.60;1.20;;;8.50;98.20;;;;;;4856953;29;20582;-75
2021/11/15 12:40:01;;;;;;;1.60;1.20;;;8.50;98.20;;;;;;4885559;29;20477;-78
2021/11/15 12:45:14;;;;;;;1.60;1.20;;;8.40;98.20;;;;;;4882673;29;20826;-75
2021/11/15 12:47:45;;;;;;;1.60;1.20;;;8.40;98.20;;;;;;4889275;29;20519;-77
2021/11/15 12:50:20;;;;;;;1.60;1.23;;;8.40;98.20;;;;;;4884331;29;20480;-76
2021/11/15 12:52:57;;;;;;;1.60;1.30;;;8.40;98.20;;;;;;4884098;29;20469;-75
2021/11/15 12:55:28;;;;;;;1.60;1.30;;;8.40;98.20;;;;;;4877935;29;20876;-76
2021/11/15 12:57:58;;;;;;;1.60;1.30;;;8.40;98.20;;;;;;4884392;29;20494;-75
2021/11/15 13:00:53;;;;;;;;;;;;;;;;;;;;;
2021/11/15 13:03:34;;;;;;;1.60;1.20;;;8.50;98.20;;;;;;4885135;29;20588;-76
2021/11/15 13:06:04;;;;;;;1.60;1.20;;;8.40;98.20;;;;;;4881317;29;20871;-76
2021/11/15 13:08:33;;;;;;;1.60;1.20;;;8.50;98.20;;;;;;4884064;29;20498;-77
2021/11/15 13:11:16;;;;;;;2.27;2.07;;;8.40;98.20;;;;;;4884180;29;20532;-76
2021/11/15 13:13:49;;;;;;;1.60;1.30;;;8.40;98.20;;;;;;4880162;29;20474;-79
2021/11/15 13:16:21;;;;;;;1.60;1.20;;;8.40;98.20;;;;;;4878679;29;20469;-76